sensor_id;sensor_type;location;lat;lon;timestamp;P1;durP1;ratioP1;P2;durP2;ratioP2
73266;SDS011;61495;53.400;7.608;2023-02-08T00:00:52;20.15;;;9.18;;
73266;SDS011;61495;53.400;7.608;2023-02-08T00:03:17;19.38;;;8.63;;
73266;SDS011;61495;53.400;7.608;2023-02-08T00:05:42;20.10;;;9.45;;
73266;SDS011;61495;53.400;7.608;2023-02-08T00:08:08;22.45;;;10.13;;
73266;SDS011;61495;53.400;7.608;2023-02-08T00:10:34;23.65;;;11.50;;
73266;SDS011;61495;53.400;7.608;2023-02-08T00:12:59;23.65;;;12.35;;
73266;SDS011;61495;53.400;7.608;2023-02-08T00:15:25;21.63;;;11.63;;
73266;SDS011;61495;53.400;7.608;2023-02-08T00:17:50;26.30;;;11.48;;
73266;SDS011;61495;53.400;7.608;2023-02-08T00:20:16;21.40;;;9.87;;
73266;SDS011;61495;53.400;7.608;2023-02-08T00:22:41;24.98;;;9.98;;
73266;SDS011;61495;53.400;7.608;2023-02-08T00:25:07;20.80;;;9.85;;
73266;SDS011;61495;53.400;7.608;2023-02-08T00:27:33;22.60;;;9.52;;
73266;SDS011;61495;53.400;7.608;2023-02-08T00:29:58;23.05;;;11.02;;
73266;SDS011;61495;53.400;7.608;2023-02-08T00:32:23;21.17;;;9.53;;
73266;SDS011;61495;53.400;7.608;2023-02-08T00:34:49;22.37;;;11.27;;
73266;SDS011;61495;53.400;7.608;2023-02-08T00:37:14;20.10;;;9.77;;
73266;SDS011;61495;53.400;7.608;2023-02-08T00:39:40;21.95;;;9.88;;
73266;SDS011;61495;53.400;7.608;2023-02-08T00:42:05;19.42;;;9.45;;
73266;SDS011;61495;53.400;7.608;2023-02-08T00:44:31;21.95;;;10.48;;
73266;SDS011;61495;53.400;7.608;2023-02-08T00:46:56;25.52;;;11.30;;
73266;SDS011;61495;53.400;7.608;2023-02-08T00:49:21;30.40;;;12.60;;
73266;SDS011;61495;53.400;7.608;2023-02-08T00:51:47;26.90;;;12.47;;
73266;SDS011;61495;53.400;7.608;2023-02-08T00:54:13;29.03;;;12.83;;
73266;SDS011;61495;53.400;7.608;2023-02-08T00:56:39;29.52;;;11.90;;
73266;SDS011;61495;53.400;7.608;2023-02-08T00:59:05;27.55;;;12.23;;
73266;SDS011;61495;53.400;7.608;2023-02-08T01:01:30;27.93;;;11.53;;
73266;SDS011;61495;53.400;7.608;2023-02-08T01:03:56;26.55;;;12.20;;
73266;SDS011;61495;53.400;7.608;2023-02-08T01:06:21;23.87;;;11.77;;
73266;SDS011;61495;53.400;7.608;2023-02-08T01:08:46;24.70;;;10.70;;
73266;SDS011;61495;53.400;7.608;2023-02-08T01:11:13;26.10;;;10.10;;
73266;SDS011;61495;53.400;7.608;2023-02-08T01:13:42;22.05;;;10.32;;
73266;SDS011;61495;53.400;7.608;2023-02-08T01:16:09;23.52;;;11.05;;
73266;SDS011;61495;53.400;7.608;2023-02-08T01:18:44;22.67;;;10.32;;
73266;SDS011;61495;53.400;7.608;2023-02-08T01:21:12;20.15;;;10.98;;
73266;SDS011;61495;53.400;7.608;2023-02-08T01:23:39;20.25;;;8.70;;
73266;SDS011;61495;53.400;7.608;2023-02-08T01:26:06;21.52;;;9.82;;
73266;SDS011;61495;53.400;7.608;2023-02-08T01:28:33;25.73;;;11.32;;
73266;SDS011;61495;53.400;7.608;2023-02-08T01:30:58;23.20;;;11.65;;
73266;SDS011;61495;53.400;7.608;2023-02-08T01:33:24;26.15;;;11.45;;
73266;SDS011;61495;53.400;7.608;2023-02-08T01:35:52;26.20;;;11.20;;
73266;SDS011;61495;53.400;7.608;2023-02-08T01:38:18;24.05;;;11.55;;
73266;SDS011;61495;53.400;7.608;2023-02-08T01:40:44;26.70;;;11.48;;
73266;SDS011;61495;53.400;7.608;2023-02-08T01:43:29;24.48;;;12.13;;
73266;SDS011;61495;53.400;7.608;2023-02-08T01:45:56;22.02;;;10.43;;
73266;SDS011;61495;53.400;7.608;2023-02-08T01:48:23;21.05;;;10.77;;
73266;SDS011;61495;53.400;7.608;2023-02-08T01:53:21;25.17;;;11.50;;
73266;SDS011;61495;53.400;7.608;2023-02-08T01:55:50;24.08;;;10.27;;
73266;SDS011;61495;53.400;7.608;2023-02-08T01:58:18;24.48;;;10.70;;
73266;SDS011;61495;53.400;7.608;2023-02-08T02:00:45;23.85;;;10.60;;
73266;SDS011;61495;53.400;7.608;2023-02-08T02:03:12;22.98;;;10.23;;
73266;SDS011;61495;53.400;7.608;2023-02-08T02:05:40;23.67;;;10.70;;
73266;SDS011;61495;53.400;7.608;2023-02-08T02:08:07;24.23;;;10.60;;
73266;SDS011;61495;53.400;7.608;2023-02-08T02:10:34;22.20;;;10.18;;
73266;SDS011;61495;53.400;7.608;2023-02-08T02:13:09;24.65;;;10.70;;
73266;SDS011;61495;53.400;7.608;2023-02-08T02:15:37;22.02;;;10.88;;
73266;SDS011;61495;53.400;7.608;2023-02-08T02:18:04;23.35;;;10.15;;
73266;SDS011;61495;53.400;7.608;2023-02-08T02:20:36;21.58;;;10.20;;
73266;SDS011;61495;53.400;7.608;2023-02-08T02:39:48;21.52;;;9.60;;
73266;SDS011;61495;53.400;7.608;2023-02-08T02:42:50;22.15;;;9.07;;
73266;SDS011;61495;53.400;7.608;2023-02-08T02:48:46;24.30;;;11.05;;
73266;SDS011;61495;53.400;7.608;2023-02-08T02:54:22;20.45;;;9.98;;
73266;SDS011;61495;53.400;7.608;2023-02-08T02:56:52;21.45;;;9.60;;
73266;SDS011;61495;53.400;7.608;2023-02-08T02:59:22;21.60;;;9.52;;
73266;SDS011;61495;53.400;7.608;2023-02-08T03:01:49;23.60;;;10.65;;
73266;SDS011;61495;53.400;7.608;2023-02-08T03:04:46;20.65;;;9.65;;
73266;SDS011;61495;53.400;7.608;2023-02-08T03:12:26;19.88;;;9.38;;
73266;SDS011;61495;53.400;7.608;2023-02-08T03:17:33;20.90;;;9.50;;
73266;SDS011;61495;53.400;7.608;2023-02-08T03:20:32;23.40;;;9.73;;
73266;SDS011;61495;53.400;7.608;2023-02-08T03:23:07;21.13;;;10.60;;
73266;SDS011;61495;53.400;7.608;2023-02-08T03:28:44;25.80;;;9.95;;
73266;SDS011;61495;53.400;7.608;2023-02-08T03:33:39;23.55;;;10.10;;
73266;SDS011;61495;53.400;7.608;2023-02-08T03:36:20;20.02;;;9.93;;
73266;SDS011;61495;53.400;7.608;2023-02-08T03:38:55;21.00;;;10.43;;
73266;SDS011;61495;53.400;7.608;2023-02-08T03:41:23;23.42;;;11.15;;
73266;SDS011;61495;53.400;7.608;2023-02-08T03:44:08;20.98;;;9.75;;
73266;SDS011;61495;53.400;7.608;2023-02-08T03:46:45;24.92;;;11.18;;
73266;SDS011;61495;53.400;7.608;2023-02-08T03:49:17;25.52;;;10.77;;
73266;SDS011;61495;53.400;7.608;2023-02-08T03:51:46;18.75;;;10.52;;
73266;SDS011;61495;53.400;7.608;2023-02-08T03:54:15;22.67;;;9.23;;
73266;SDS011;61495;53.400;7.608;2023-02-08T03:56:46;20.67;;;9.73;;
73266;SDS011;61495;53.400;7.608;2023-02-08T03:59:17;18.05;;;9.23;;
73266;SDS011;61495;53.400;7.608;2023-02-08T04:01:52;23.45;;;11.50;;
73266;SDS011;61495;53.400;7.608;2023-02-08T04:04:21;23.33;;;8.98;;
73266;SDS011;61495;53.400;7.608;2023-02-08T04:06:50;24.38;;;10.70;;
73266;SDS011;61495;53.400;7.608;2023-02-08T04:09:16;24.48;;;11.02;;
73266;SDS011;61495;53.400;7.608;2023-02-08T04:11:41;21.52;;;10.40;;
73266;SDS011;61495;53.400;7.608;2023-02-08T04:14:06;22.47;;;9.97;;
73266;SDS011;61495;53.400;7.608;2023-02-08T04:16:32;26.08;;;12.52;;
73266;SDS011;61495;53.400;7.608;2023-02-08T04:18:57;27.43;;;12.47;;
73266;SDS011;61495;53.400;7.608;2023-02-08T04:21:22;24.05;;;11.18;;
73266;SDS011;61495;53.400;7.608;2023-02-08T04:23:48;27.33;;;10.75;;
73266;SDS011;61495;53.400;7.608;2023-02-08T04:26:13;24.03;;;10.70;;
73266;SDS011;61495;53.400;7.608;2023-02-08T04:28:38;23.67;;;11.20;;
73266;SDS011;61495;53.400;7.608;2023-02-08T04:31:04;22.23;;;10.50;;
73266;SDS011;61495;53.400;7.608;2023-02-08T04:33:29;23.83;;;10.93;;
73266;SDS011;61495;53.400;7.608;2023-02-08T04:35:55;24.17;;;10.63;;
73266;SDS011;61495;53.400;7.608;2023-02-08T04:38:20;26.63;;;10.90;;
73266;SDS011;61495;53.400;7.608;2023-02-08T04:40:45;27.88;;;11.50;;
73266;SDS011;61495;53.400;7.608;2023-02-08T04:43:11;27.17;;;11.57;;
73266;SDS011;61495;53.400;7.608;2023-02-08T04:45:36;23.58;;;10.48;;
73266;SDS011;61495;53.400;7.608;2023-02-08T04:48:01;24.50;;;10.85;;
73266;SDS011;61495;53.400;7.608;2023-02-08T04:50:28;25.13;;;11.80;;
73266;SDS011;61495;53.400;7.608;2023-02-08T04:52:53;25.75;;;11.68;;
73266;SDS011;61495;53.400;7.608;2023-02-08T04:55:19;24.35;;;12.13;;
73266;SDS011;61495;53.400;7.608;2023-02-08T04:57:44;30.95;;;12.52;;
73266;SDS011;61495;53.400;7.608;2023-02-08T05:00:09;26.20;;;11.43;;
73266;SDS011;61495;53.400;7.608;2023-02-08T05:02:35;28.52;;;11.68;;
73266;SDS011;61495;53.400;7.608;2023-02-08T05:05:01;27.48;;;11.27;;
73266;SDS011;61495;53.400;7.608;2023-02-08T05:07:26;29.37;;;12.27;;
73266;SDS011;61495;53.400;7.608;2023-02-08T05:09:51;27.87;;;11.73;;
73266;SDS011;61495;53.400;7.608;2023-02-08T05:12:17;23.88;;;11.32;;
73266;SDS011;61495;53.400;7.608;2023-02-08T05:14:42;25.53;;;10.87;;
73266;SDS011;61495;53.400;7.608;2023-02-08T05:17:07;24.30;;;11.17;;
73266;SDS011;61495;53.400;7.608;2023-02-08T05:19:33;25.65;;;11.30;;
73266;SDS011;61495;53.400;7.608;2023-02-08T05:21:58;25.05;;;11.40;;
73266;SDS011;61495;53.400;7.608;2023-02-08T05:24:23;27.07;;;12.40;;
73266;SDS011;61495;53.400;7.608;2023-02-08T05:26:49;25.63;;;10.70;;
73266;SDS011;61495;53.400;7.608;2023-02-08T05:29:14;29.93;;;11.90;;
73266;SDS011;61495;53.400;7.608;2023-02-08T05:31:39;24.63;;;11.40;;
73266;SDS011;61495;53.400;7.608;2023-02-08T05:34:05;22.63;;;10.93;;
73266;SDS011;61495;53.400;7.608;2023-02-08T05:36:30;24.73;;;11.23;;
73266;SDS011;61495;53.400;7.608;2023-02-08T05:38:56;27.65;;;11.13;;
73266;SDS011;61495;53.400;7.608;2023-02-08T05:41:21;25.08;;;10.75;;
73266;SDS011;61495;53.400;7.608;2023-02-08T05:43:46;25.25;;;11.32;;
73266;SDS011;61495;53.400;7.608;2023-02-08T05:46:12;25.00;;;12.27;;
73266;SDS011;61495;53.400;7.608;2023-02-08T05:51:02;27.02;;;11.48;;
73266;SDS011;61495;53.400;7.608;2023-02-08T05:53:28;24.73;;;11.90;;
73266;SDS011;61495;53.400;7.608;2023-02-08T05:55:55;21.70;;;11.13;;
73266;SDS011;61495;53.400;7.608;2023-02-08T05:58:21;24.75;;;11.68;;
73266;SDS011;61495;53.400;7.608;2023-02-08T06:00:46;26.23;;;11.50;;
73266;SDS011;61495;53.400;7.608;2023-02-08T06:03:12;27.38;;;10.68;;
73266;SDS011;61495;53.400;7.608;2023-02-08T06:05:37;21.10;;;9.32;;
73266;SDS011;61495;53.400;7.608;2023-02-08T06:08:04;25.48;;;11.18;;
73266;SDS011;61495;53.400;7.608;2023-02-08T06:10:29;22.90;;;11.05;;
73266;SDS011;61495;53.400;7.608;2023-02-08T06:12:55;31.15;;;12.73;;
73266;SDS011;61495;53.400;7.608;2023-02-08T06:15:20;28.43;;;12.97;;
73266;SDS011;61495;53.400;7.608;2023-02-08T06:17:45;30.67;;;13.37;;
73266;SDS011;61495;53.400;7.608;2023-02-08T06:20:11;29.30;;;12.75;;
73266;SDS011;61495;53.400;7.608;2023-02-08T06:22:36;27.48;;;13.05;;
73266;SDS011;61495;53.400;7.608;2023-02-08T06:25:03;30.92;;;13.65;;
73266;SDS011;61495;53.400;7.608;2023-02-08T06:27:30;24.00;;;10.88;;
73266;SDS011;61495;53.400;7.608;2023-02-08T06:29:55;22.33;;;9.82;;
73266;SDS011;61495;53.400;7.608;2023-02-08T06:32:20;25.85;;;11.35;;
73266;SDS011;61495;53.400;7.608;2023-02-08T06:34:46;27.77;;;11.30;;
73266;SDS011;61495;53.400;7.608;2023-02-08T06:37:14;25.83;;;11.85;;
73266;SDS011;61495;53.400;7.608;2023-02-08T06:39:40;23.85;;;11.20;;
73266;SDS011;61495;53.400;7.608;2023-02-08T06:42:06;26.15;;;12.18;;
73266;SDS011;61495;53.400;7.608;2023-02-08T06:44:31;26.43;;;11.03;;
73266;SDS011;61495;53.400;7.608;2023-02-08T06:46:56;27.48;;;12.65;;
73266;SDS011;61495;53.400;7.608;2023-02-08T06:49:22;25.90;;;10.55;;
73266;SDS011;61495;53.400;7.608;2023-02-08T06:51:48;26.35;;;11.88;;
73266;SDS011;61495;53.400;7.608;2023-02-08T06:54:13;28.25;;;10.73;;
73266;SDS011;61495;53.400;7.608;2023-02-08T06:56:39;25.95;;;11.82;;
73266;SDS011;61495;53.400;7.608;2023-02-08T06:59:05;24.00;;;11.60;;
73266;SDS011;61495;53.400;7.608;2023-02-08T07:01:30;24.65;;;11.15;;
73266;SDS011;61495;53.400;7.608;2023-02-08T07:03:55;25.58;;;10.68;;
73266;SDS011;61495;53.400;7.608;2023-02-08T07:06:21;25.77;;;11.33;;
73266;SDS011;61495;53.400;7.608;2023-02-08T07:08:46;22.60;;;10.60;;
73266;SDS011;61495;53.400;7.608;2023-02-08T07:11:14;29.23;;;12.43;;
73266;SDS011;61495;53.400;7.608;2023-02-08T07:13:45;28.85;;;11.20;;
73266;SDS011;61495;53.400;7.608;2023-02-08T07:16:14;25.15;;;11.43;;
73266;SDS011;61495;53.400;7.608;2023-02-08T07:21:05;23.57;;;10.40;;
73266;SDS011;61495;53.400;7.608;2023-02-08T07:23:31;24.70;;;9.57;;
73266;SDS011;61495;53.400;7.608;2023-02-08T07:25:57;25.80;;;11.38;;
73266;SDS011;61495;53.400;7.608;2023-02-08T07:28:23;23.88;;;11.68;;
73266;SDS011;61495;53.400;7.608;2023-02-08T07:30:49;25.80;;;11.55;;
73266;SDS011;61495;53.400;7.608;2023-02-08T07:33:14;27.85;;;12.07;;
73266;SDS011;61495;53.400;7.608;2023-02-08T07:35:40;22.57;;;10.20;;
73266;SDS011;61495;53.400;7.608;2023-02-08T07:38:05;24.27;;;11.57;;
73266;SDS011;61495;53.400;7.608;2023-02-08T07:40:30;22.77;;;10.30;;
73266;SDS011;61495;53.400;7.608;2023-02-08T07:42:56;24.38;;;11.40;;
73266;SDS011;61495;53.400;7.608;2023-02-08T07:45:21;24.95;;;10.82;;
73266;SDS011;61495;53.400;7.608;2023-02-08T07:47:47;27.42;;;11.35;;
73266;SDS011;61495;53.400;7.608;2023-02-08T07:50:13;25.23;;;11.83;;
73266;SDS011;61495;53.400;7.608;2023-02-08T07:52:42;24.38;;;11.98;;
73266;SDS011;61495;53.400;7.608;2023-02-08T07:55:10;25.42;;;10.25;;
73266;SDS011;61495;53.400;7.608;2023-02-08T07:57:40;25.13;;;11.88;;
73266;SDS011;61495;53.400;7.608;2023-02-08T08:00:09;25.10;;;11.80;;
73266;SDS011;61495;53.400;7.608;2023-02-08T08:02:36;22.50;;;10.82;;
73266;SDS011;61495;53.400;7.608;2023-02-08T08:05:01;24.92;;;11.07;;
73266;SDS011;61495;53.400;7.608;2023-02-08T08:07:27;24.05;;;10.93;;
73266;SDS011;61495;53.400;7.608;2023-02-08T08:09:52;24.08;;;10.52;;
73266;SDS011;61495;53.400;7.608;2023-02-08T08:12:18;28.47;;;11.77;;
73266;SDS011;61495;53.400;7.608;2023-02-08T08:14:43;23.73;;;10.73;;
73266;SDS011;61495;53.400;7.608;2023-02-08T08:17:08;24.80;;;11.85;;
73266;SDS011;61495;53.400;7.608;2023-02-08T08:19:34;26.17;;;12.20;;
73266;SDS011;61495;53.400;7.608;2023-02-08T08:21:59;28.45;;;10.63;;
73266;SDS011;61495;53.400;7.608;2023-02-08T08:24:24;24.73;;;10.70;;
73266;SDS011;61495;53.400;7.608;2023-02-08T08:26:50;26.80;;;12.38;;
73266;SDS011;61495;53.400;7.608;2023-02-08T08:29:15;29.40;;;11.93;;
73266;SDS011;61495;53.400;7.608;2023-02-08T08:31:41;27.70;;;12.32;;
73266;SDS011;61495;53.400;7.608;2023-02-08T08:34:08;29.92;;;13.38;;
73266;SDS011;61495;53.400;7.608;2023-02-08T08:36:33;27.38;;;11.55;;
73266;SDS011;61495;53.400;7.608;2023-02-08T08:38:58;29.13;;;13.32;;
73266;SDS011;61495;53.400;7.608;2023-02-08T08:41:24;28.30;;;12.73;;
73266;SDS011;61495;53.400;7.608;2023-02-08T08:43:51;28.77;;;12.75;;
73266;SDS011;61495;53.400;7.608;2023-02-08T08:46:17;32.03;;;13.13;;
73266;SDS011;61495;53.400;7.608;2023-02-08T08:48:44;28.55;;;12.35;;
73266;SDS011;61495;53.400;7.608;2023-02-08T08:53:36;28.70;;;11.25;;
73266;SDS011;61495;53.400;7.608;2023-02-08T08:56:01;28.08;;;12.85;;
73266;SDS011;61495;53.400;7.608;2023-02-08T08:58:27;25.70;;;11.50;;
73266;SDS011;61495;53.400;7.608;2023-02-08T09:00:55;31.20;;;11.85;;
73266;SDS011;61495;53.400;7.608;2023-02-08T09:03:22;29.55;;;12.25;;
73266;SDS011;61495;53.400;7.608;2023-02-08T09:05:47;26.95;;;12.38;;
73266;SDS011;61495;53.400;7.608;2023-02-08T09:08:13;31.73;;;11.82;;
73266;SDS011;61495;53.400;7.608;2023-02-08T09:10:38;23.05;;;12.32;;
73266;SDS011;61495;53.400;7.608;2023-02-08T09:13:03;32.05;;;13.32;;
73266;SDS011;61495;53.400;7.608;2023-02-08T09:15:29;25.35;;;12.32;;
73266;SDS011;61495;53.400;7.608;2023-02-08T09:17:54;28.75;;;12.68;;
73266;SDS011;61495;53.400;7.608;2023-02-08T09:20:19;31.17;;;14.05;;
73266;SDS011;61495;53.400;7.608;2023-02-08T09:22:45;25.35;;;11.05;;
73266;SDS011;61495;53.400;7.608;2023-02-08T09:25:11;29.40;;;13.43;;
73266;SDS011;61495;53.400;7.608;2023-02-08T09:27:36;26.42;;;12.60;;
73266;SDS011;61495;53.400;7.608;2023-02-08T09:30:01;26.30;;;11.13;;
73266;SDS011;61495;53.400;7.608;2023-02-08T09:32:29;26.60;;;13.23;;
73266;SDS011;61495;53.400;7.608;2023-02-08T09:34:58;28.00;;;12.23;;
73266;SDS011;61495;53.400;7.608;2023-02-08T09:37:23;24.65;;;12.80;;
73266;SDS011;61495;53.400;7.608;2023-02-08T09:39:49;26.40;;;12.18;;
73266;SDS011;61495;53.400;7.608;2023-02-08T09:43:00;30.85;;;11.57;;
73266;SDS011;61495;53.400;7.608;2023-02-08T09:50:19;25.33;;;11.93;;
73266;SDS011;61495;53.400;7.608;2023-02-08T09:52:48;22.80;;;9.52;;
73266;SDS011;61495;53.400;7.608;2023-02-08T09:55:33;21.55;;;10.25;;
73266;SDS011;61495;53.400;7.608;2023-02-08T09:58:03;23.67;;;10.15;;
73266;SDS011;61495;53.400;7.608;2023-02-08T10:00:41;24.20;;;11.23;;
73266;SDS011;61495;53.400;7.608;2023-02-08T10:03:18;22.10;;;11.10;;
73266;SDS011;61495;53.400;7.608;2023-02-08T10:05:51;26.55;;;12.18;;
73266;SDS011;61495;53.400;7.608;2023-02-08T10:08:16;25.13;;;11.40;;
73266;SDS011;61495;53.400;7.608;2023-02-08T10:10:46;25.92;;;11.32;;
73266;SDS011;61495;53.400;7.608;2023-02-08T10:13:26;21.55;;;10.02;;
73266;SDS011;61495;53.400;7.608;2023-02-08T10:16:13;23.10;;;11.07;;
73266;SDS011;61495;53.400;7.608;2023-02-08T10:19:00;23.92;;;10.38;;
73266;SDS011;61495;53.400;7.608;2023-02-08T10:24:37;21.67;;;10.43;;
73266;SDS011;61495;53.400;7.608;2023-02-08T10:30:31;23.50;;;10.77;;
73266;SDS011;61495;53.400;7.608;2023-02-08T10:33:20;18.65;;;8.90;;
73266;SDS011;61495;53.400;7.608;2023-02-08T10:35:47;19.38;;;9.60;;
73266;SDS011;61495;53.400;7.608;2023-02-08T10:38:28;19.65;;;9.57;;
73266;SDS011;61495;53.400;7.608;2023-02-08T10:40:57;21.42;;;10.35;;
73266;SDS011;61495;53.400;7.608;2023-02-08T10:46:01;20.60;;;9.82;;
73266;SDS011;61495;53.400;7.608;2023-02-08T10:49:21;19.15;;;9.98;;
73266;SDS011;61495;53.400;7.608;2023-02-08T10:51:37;18.48;;;8.95;;
73266;SDS011;61495;53.400;7.608;2023-02-08T10:54:03;17.67;;;9.77;;
73266;SDS011;61495;53.400;7.608;2023-02-08T10:58:54;20.40;;;9.47;;
73266;SDS011;61495;53.400;7.608;2023-02-08T11:01:21;16.45;;;9.43;;
73266;SDS011;61495;53.400;7.608;2023-02-08T11:04:04;18.15;;;8.55;;
73266;SDS011;61495;53.400;7.608;2023-02-08T11:06:31;17.27;;;8.65;;
73266;SDS011;61495;53.400;7.608;2023-02-08T11:08:56;16.48;;;8.43;;
73266;SDS011;61495;53.400;7.608;2023-02-08T11:11:23;17.70;;;9.75;;
73266;SDS011;61495;53.400;7.608;2023-02-08T11:13:51;16.23;;;8.80;;
73266;SDS011;61495;53.400;7.608;2023-02-08T11:16:20;20.83;;;9.40;;
73266;SDS011;61495;53.400;7.608;2023-02-08T11:23:50;19.10;;;9.95;;
73266;SDS011;61495;53.400;7.608;2023-02-08T11:29:14;16.02;;;8.90;;
73266;SDS011;61495;53.400;7.608;2023-02-08T11:37:00;18.77;;;9.38;;
73266;SDS011;61495;53.400;7.608;2023-02-08T11:40:14;16.88;;;9.10;;
73266;SDS011;61495;53.400;7.608;2023-02-08T11:42:29;16.75;;;8.68;;
73266;SDS011;61495;53.400;7.608;2023-02-08T11:44:58;15.60;;;8.50;;
73266;SDS011;61495;53.400;7.608;2023-02-08T11:47:26;17.45;;;8.40;;
73266;SDS011;61495;53.400;7.608;2023-02-08T11:49:58;16.20;;;7.90;;
73266;SDS011;61495;53.400;7.608;2023-02-08T11:52:29;16.05;;;8.70;;
73266;SDS011;61495;53.400;7.608;2023-02-08T11:57:50;16.98;;;8.57;;
73266;SDS011;61495;53.400;7.608;2023-02-08T12:00:19;15.32;;;7.88;;
73266;SDS011;61495;53.400;7.608;2023-02-08T12:02:50;15.88;;;8.50;;
73266;SDS011;61495;53.400;7.608;2023-02-08T12:05:26;13.23;;;7.72;;
73266;SDS011;61495;53.400;7.608;2023-02-08T12:08:04;15.10;;;7.38;;
73266;SDS011;61495;53.400;7.608;2023-02-08T12:14:24;15.20;;;8.15;;
73266;SDS011;61495;53.400;7.608;2023-02-08T12:21:45;14.90;;;7.75;;
73266;SDS011;61495;53.400;7.608;2023-02-08T12:26:51;13.75;;;8.20;;
73266;SDS011;61495;53.400;7.608;2023-02-08T12:30:13;15.68;;;8.30;;
73266;SDS011;61495;53.400;7.608;2023-02-08T12:32:51;18.42;;;7.97;;
73266;SDS011;61495;53.400;7.608;2023-02-08T12:42:16;11.65;;;6.45;;
73266;SDS011;61495;53.400;7.608;2023-02-08T12:50:21;15.60;;;7.20;;
73266;SDS011;61495;53.400;7.608;2023-02-08T12:55:57;12.13;;;6.32;;
73266;SDS011;61495;53.400;7.608;2023-02-08T12:58:40;13.57;;;7.30;;
73266;SDS011;61495;53.400;7.608;2023-02-08T13:01:12;12.80;;;6.72;;
73266;SDS011;61495;53.400;7.608;2023-02-08T13:03:50;16.38;;;8.38;;
73266;SDS011;61495;53.400;7.608;2023-02-08T13:06:24;16.95;;;8.27;;
73266;SDS011;61495;53.400;7.608;2023-02-08T13:11:29;15.10;;;7.68;;
73266;SDS011;61495;53.400;7.608;2023-02-08T13:14:24;14.13;;;7.05;;
73266;SDS011;61495;53.400;7.608;2023-02-08T13:17:14;16.27;;;7.47;;
73266;SDS011;61495;53.400;7.608;2023-02-08T13:19:47;16.08;;;10.98;;
73266;SDS011;61495;53.400;7.608;2023-02-08T13:22:17;14.18;;;8.05;;
73266;SDS011;61495;53.400;7.608;2023-02-08T13:24:43;15.48;;;8.02;;
73266;SDS011;61495;53.400;7.608;2023-02-08T13:27:18;12.88;;;6.63;;
73266;SDS011;61495;53.400;7.608;2023-02-08T13:29:45;11.60;;;6.72;;
73266;SDS011;61495;53.400;7.608;2023-02-08T13:32:14;11.93;;;6.63;;
73266;SDS011;61495;53.400;7.608;2023-02-08T13:34:55;11.73;;;6.47;;
73266;SDS011;61495;53.400;7.608;2023-02-08T13:37:23;14.20;;;7.00;;
73266;SDS011;61495;53.400;7.608;2023-02-08T13:39:59;11.15;;;7.68;;
73266;SDS011;61495;53.400;7.608;2023-02-08T13:45:40;10.73;;;5.65;;
73266;SDS011;61495;53.400;7.608;2023-02-08T13:48:13;11.00;;;6.32;;
73266;SDS011;61495;53.400;7.608;2023-02-08T13:53:16;11.73;;;6.20;;
73266;SDS011;61495;53.400;7.608;2023-02-08T14:05:52;12.43;;;6.18;;
73266;SDS011;61495;53.400;7.608;2023-02-08T14:08:30;9.63;;;5.53;;
73266;SDS011;61495;53.400;7.608;2023-02-08T14:13:47;9.98;;;5.75;;
73266;SDS011;61495;53.400;7.608;2023-02-08T14:19:01;10.40;;;5.53;;
73266;SDS011;61495;53.400;7.608;2023-02-08T14:21:30;10.35;;;5.60;;
73266;SDS011;61495;53.400;7.608;2023-02-08T14:24:16;9.35;;;5.28;;
73266;SDS011;61495;53.400;7.608;2023-02-08T14:26:45;10.38;;;5.25;;
73266;SDS011;61495;53.400;7.608;2023-02-08T14:29:18;11.80;;;6.25;;
73266;SDS011;61495;53.400;7.608;2023-02-08T14:31:47;10.43;;;6.38;;
73266;SDS011;61495;53.400;7.608;2023-02-08T14:34:21;11.40;;;5.97;;
73266;SDS011;61495;53.400;7.608;2023-02-08T14:36:56;11.20;;;5.70;;
73266;SDS011;61495;53.400;7.608;2023-02-08T14:39:25;10.57;;;6.30;;
73266;SDS011;61495;53.400;7.608;2023-02-08T14:49:50;10.57;;;5.20;;
73266;SDS011;61495;53.400;7.608;2023-02-08T14:52:26;9.45;;;5.50;;
73266;SDS011;61495;53.400;7.608;2023-02-08T14:55:04;9.10;;;5.35;;
73266;SDS011;61495;53.400;7.608;2023-02-08T14:57:33;10.23;;;5.20;;
73266;SDS011;61495;53.400;7.608;2023-02-08T15:00:03;21.35;;;5.78;;
73266;SDS011;61495;53.400;7.608;2023-02-08T15:02:32;9.80;;;5.10;;
73266;SDS011;61495;53.400;7.608;2023-02-08T15:05:03;8.32;;;4.63;;
73266;SDS011;61495;53.400;7.608;2023-02-08T15:07:34;10.85;;;5.60;;
73266;SDS011;61495;53.400;7.608;2023-02-08T15:10:11;10.45;;;4.93;;
73266;SDS011;61495;53.400;7.608;2023-02-08T15:12:39;9.02;;;5.22;;
73266;SDS011;61495;53.400;7.608;2023-02-08T15:15:19;8.93;;;5.15;;
73266;SDS011;61495;53.400;7.608;2023-02-08T15:17:49;9.70;;;4.90;;
73266;SDS011;61495;53.400;7.608;2023-02-08T15:20:24;10.32;;;4.85;;
73266;SDS011;61495;53.400;7.608;2023-02-08T15:25:24;9.18;;;4.43;;
73266;SDS011;61495;53.400;7.608;2023-02-08T15:27:55;8.00;;;4.75;;
73266;SDS011;61495;53.400;7.608;2023-02-08T15:32:51;9.70;;;4.80;;
73266;SDS011;61495;53.400;7.608;2023-02-08T15:35:17;7.68;;;3.92;;
73266;SDS011;61495;53.400;7.608;2023-02-08T15:37:44;9.52;;;4.40;;
73266;SDS011;61495;53.400;7.608;2023-02-08T15:45:31;8.13;;;4.27;;
73266;SDS011;61495;53.400;7.608;2023-02-08T15:47:56;7.05;;;4.13;;
73266;SDS011;61495;53.400;7.608;2023-02-08T15:50:22;6.95;;;3.67;;
73266;SDS011;61495;53.400;7.608;2023-02-08T15:53:02;8.50;;;4.28;;
73266;SDS011;61495;53.400;7.608;2023-02-08T15:55:32;7.82;;;3.95;;
73266;SDS011;61495;53.400;7.608;2023-02-08T15:58:05;7.40;;;3.85;;
73266;SDS011;61495;53.400;7.608;2023-02-08T16:00:40;8.93;;;3.80;;
73266;SDS011;61495;53.400;7.608;2023-02-08T16:03:14;6.72;;;3.50;;
73266;SDS011;61495;53.400;7.608;2023-02-08T16:05:50;6.55;;;3.53;;
73266;SDS011;61495;53.400;7.608;2023-02-08T16:08:23;7.72;;;3.67;;
73266;SDS011;61495;53.400;7.608;2023-02-08T16:10:51;8.60;;;3.45;;
73266;SDS011;61495;53.400;7.608;2023-02-08T16:13:22;7.95;;;4.00;;
73266;SDS011;61495;53.400;7.608;2023-02-08T16:15:57;7.13;;;3.63;;
73266;SDS011;61495;53.400;7.608;2023-02-08T16:18:40;7.32;;;3.97;;
73266;SDS011;61495;53.400;7.608;2023-02-08T16:21:33;5.80;;;3.13;;
73266;SDS011;61495;53.400;7.608;2023-02-08T16:26:35;8.45;;;3.65;;
73266;SDS011;61495;53.400;7.608;2023-02-08T16:29:18;7.55;;;3.67;;
73266;SDS011;61495;53.400;7.608;2023-02-08T16:31:57;6.20;;;3.50;;
73266;SDS011;61495;53.400;7.608;2023-02-08T16:34:34;6.65;;;3.53;;
73266;SDS011;61495;53.400;7.608;2023-02-08T16:37:03;8.05;;;4.30;;
73266;SDS011;61495;53.400;7.608;2023-02-08T16:39:35;7.07;;;3.28;;
73266;SDS011;61495;53.400;7.608;2023-02-08T16:42:02;9.73;;;5.05;;
73266;SDS011;61495;53.400;7.608;2023-02-08T16:44:34;8.45;;;4.10;;
73266;SDS011;61495;53.400;7.608;2023-02-08T16:47:01;10.48;;;5.05;;
73266;SDS011;61495;53.400;7.608;2023-02-08T16:49:48;9.73;;;5.05;;
73266;SDS011;61495;53.400;7.608;2023-02-08T16:52:14;9.23;;;4.53;;
73266;SDS011;61495;53.400;7.608;2023-02-08T16:54:39;8.70;;;4.45;;
73266;SDS011;61495;53.400;7.608;2023-02-08T16:57:04;8.85;;;4.38;;
73266;SDS011;61495;53.400;7.608;2023-02-08T16:59:30;9.15;;;5.07;;
73266;SDS011;61495;53.400;7.608;2023-02-08T17:01:55;8.00;;;4.97;;
73266;SDS011;61495;53.400;7.608;2023-02-08T17:04:21;8.52;;;4.22;;
73266;SDS011;61495;53.400;7.608;2023-02-08T17:06:48;9.25;;;5.50;;
73266;SDS011;61495;53.400;7.608;2023-02-08T17:09:13;8.48;;;4.18;;
73266;SDS011;61495;53.400;7.608;2023-02-08T17:11:39;8.23;;;4.50;;